Time;durP1;ratioP1;P1;durP2;ratioP2;P2;SDS_P1;SDS_P2;PMS_P1;PMS_P2;Temp;Humidity;BMP_temperature;BMP_pressure;BME280_temperature;BME280_humidity;BME280_pressure;Samples;Min_cycle;Max_cycle;Signal;HPM_P1;HPM_P2
2022/05/28 08:20:12;;;;;;;3.60;2.40;;;21.00;99.90;;;;;;5081363;27;1404586;-52
2022/05/28 08:25:22;;;;;;;3.30;2.20;;;21.00;99.90;;;;;;5124853;27;20096;-56
2022/05/28 08:27:48;;;;;;;4.57;2.10;;;20.90;99.90;;;;;;5122602;27;20035;-53
2022/05/28 08:30:14;;;;;;;7.05;2.53;;;20.80;99.90;;;;;;5121178;27;20027;-49
2022/05/28 08:32:39;;;;;;;3.92;2.40;;;20.90;99.90;;;;;;5125978;27;20065;-57
2022/05/28 08:35:05;;;;;;;3.90;1.80;;;20.60;99.90;;;;;;5118006;27;20039;-54
2022/05/28 08:37:31;;;;;;;6.43;2.53;;;20.20;99.90;;;;;;5114738;27;20035;-48
2022/05/28 08:39:57;;;;;;;3.10;2.30;;;20.00;99.90;;;;;;5123201;27;20422;-50
2022/05/28 08:42:26;;;;;;;3.42;2.80;;;19.60;99.90;;;;;;5124942;27;20023;-54
2022/05/28 08:44:54;;;;;;;5.28;2.90;;;19.70;99.90;;;;;;5125370;27;20019;-55
2022/05/28 08:47:29;;;;;;;3.38;2.55;;;19.80;99.90;;;;;;5082356;27;20039;-56
2022/05/28 08:49:55;;;;;;;4.65;2.70;;;19.70;99.90;;;;;;5099206;27;20044;-54
2022/05/28 08:52:40;;;;;;;5.72;2.47;;;19.70;99.90;;;;;;5122808;27;20386;-50
2022/05/28 08:55:15;;;;;;;4.40;2.80;;;19.60;99.90;;;;;;5126400;27;20034;-51
2022/05/28 08:57:51;;;;;;;5.55;2.70;;;19.50;99.90;;;;;;5111428;27;20043;-52
2022/05/28 09:00:32;;;;;;;2.35;2.10;;;19.40;99.90;;;;;;5122894;27;20046;-55
2022/05/28 09:03:08;;;;;;;2.58;2.33;;;19.30;99.90;;;;;;5123666;27;20385;-54
2022/05/28 09:06:04;;;;;;;2.92;2.53;;;19.10;99.90;;;;;;5094637;28;20048;-56
2022/05/28 09:08:33;;;;;;;3.53;2.05;;;;;;;;;;5119459;27;20087;-54
2022/05/28 09:11:05;;;;;;;6.35;4.65;;;18.80;99.90;;;;;;5121488;27;20050;-54
2022/05/28 09:13:43;;;;;;;5.72;3.83;;;18.90;99.90;;;;;;5118153;27;20042;-57
2022/05/28 09:16:25;;;;;;;7.00;4.03;;;18.90;99.90;;;;;;5068151;28;20047;-59
2022/05/28 09:18:53;;;;;;;14.70;4.57;;;18.80;99.90;;;;;;5131434;28;20035;-59
2022/05/28 09:21:21;;;;;;;3.42;2.22;;;18.90;99.90;;;;;;5128452;28;20028;-61
2022/05/28 09:24:01;;;;;;;4.03;2.40;;;18.90;99.90;;;;;;5054576;28;20035;-64
2022/05/28 09:26:35;;;;;;;3.30;2.13;;;18.80;99.90;;;;;;5122354;28;20042;-57
2022/05/28 09:29:25;;;;;;;5.13;2.33;;;18.80;99.90;;;;;;5127101;27;20023;-55
2022/05/28 09:32:24;;;;;;;8.23;2.60;;;19.00;99.90;;;;;;5120881;28;20063;-60
2022/05/28 09:35:07;;;;;;;1.70;1.58;;;18.80;99.90;;;;;;5034642;28;20041;-57
2022/05/28 09:37:42;;;;;;;3.85;2.55;;;18.60;99.90;;;;;;5037806;28;20133;-58
2022/05/28 09:40:19;;;;;;;3.63;2.25;;;18.60;99.90;;;;;;5043785;28;20041;-59
2022/05/28 09:43:26;;;;;;;3.33;1.77;;;18.60;99.90;;;;;;5043214;28;20116;-61
2022/05/28 09:46:12;;;;;;;5.78;2.17;;;;;;;;;;4986329;28;20501;-60
2022/05/28 09:48:38;;;;;;;4.43;1.83;;;;;;;;;;4983589;28;21092;-60
2022/05/28 09:51:03;;;;;;;4.15;1.90;;;18.40;99.90;;;;;;4984576;28;20494;-57
2022/05/28 09:56:36;;;;;;;3.85;2.40;;;18.60;99.90;;;;;;4984653;28;20053;-58
2022/05/28 09:59:25;;;;;;;7.03;3.28;;;18.80;99.90;;;;;;4984407;28;20064;-59
2022/05/28 10:01:58;;;;;;;5.40;2.85;;;18.70;99.90;;;;;;4983616;28;20482;-62
2022/05/28 10:04:29;;;;;;;5.10;3.55;;;18.70;99.90;;;;;;4967632;28;20035;-57
2022/05/28 10:06:56;;;;;;;5.30;3.90;;;;;;;;;;4981668;28;20454;-52
2022/05/28 10:09:28;;;;;;;4.18;3.47;;;18.80;99.90;;;;;;4987186;28;20046;-52
2022/05/28 10:12:09;;;;;;;;;;;;;;;;;;4988501;28;20129;-53
2022/05/28 10:14:34;;;;;;;4.40;2.33;;;19.10;99.90;;;;;;4985540;28;19918;-54
2022/05/28 10:17:03;;;;;;;3.17;2.03;;;19.10;99.90;;;;;;4973348;28;20096;-50
2022/05/28 10:19:31;;;;;;;3.80;1.98;;;;;;;;;;5008868;28;20536;-51
2022/05/28 10:22:00;;;;;;;3.42;2.33;;;;;;;;;;5039594;27;20050;-57
2022/05/28 10:24:32;;;;;;;5.07;2.42;;;19.20;99.90;;;;;;5122873;27;20029;-51
2022/05/28 10:27:01;;;;;;;3.15;2.20;;;19.40;99.90;;;;;;5057568;28;20438;-50
2022/05/28 10:29:31;;;;;;;4.47;2.20;;;19.60;99.90;;;;;;5055092;28;20044;-49
2022/05/28 10:31:59;;;;;;;4.80;3.40;;;19.80;99.90;;;;;;5064222;28;20070;-52
2022/05/28 10:34:32;;;;;;;4.20;2.30;;;19.80;99.90;;;;;;5062346;28;20029;-51
2022/05/28 10:37:14;;;;;;;4.53;2.30;;;19.70;99.90;;;;;;5009381;28;20453;-52
2022/05/28 10:39:40;;;;;;;2.92;1.63;;;19.60;99.90;;;;;;5072961;28;20075;-54
2022/05/28 10:42:10;;;;;;;3.45;1.90;;;19.80;99.90;;;;;;5065701;28;20107;-52
2022/05/28 10:44:38;;;;;;;5.10;2.50;;;19.80;99.90;;;;;;5052251;28;20040;-51
2022/05/28 10:47:48;;;;;;;3.72;2.15;;;19.80;99.90;;;;;;5061493;28;20029;-61
2022/05/28 10:50:20;;;;;;;2.88;1.70;;;19.80;99.90;;;;;;5041475;28;20506;-54
2022/05/28 10:52:46;;;;;;;2.63;1.42;;;;;;;;;;5054629;28;20067;-54
2022/05/28 10:55:16;;;;;;;1.42;1.23;;;;;;;;;;5062549;28;20041;-54
2022/05/28 10:57:54;;;;;;;1.60;1.48;;;;;;;;;;5070496;28;20048;-53
2022/05/28 11:00:29;;;;;;;3.22;1.40;;;19.10;99.90;;;;;;5062976;28;20034;-54
2022/05/28 11:03:12;;;;;;;4.60;1.45;;;18.90;99.90;;;;;;5062406;28;20025;-53
2022/05/28 11:06:07;;;;;;;2.33;1.30;;;;;;;;;;5130076;27;20027;-53
2022/05/28 11:08:33;;;;;;;1.75;1.30;;;;;;;;;;5050115;28;20064;-54
2022/05/28 11:11:29;;;;;;;2.05;1.40;;;;;;;;;;5042854;28;20489;-53
2022/05/28 11:13:58;;;;;;;5.07;2.63;;;;;;;;;;5029219;28;20076;-54
2022/05/28 11:16:29;;;;;;;3.13;1.58;;;18.50;99.90;;;;;;5030291;28;20102;-54
2022/05/28 11:19:04;;;;;;;2.88;1.38;;;18.80;99.90;;;;;;5025228;28;20030;-53
2022/05/28 11:21:51;;;;;;;3.83;1.75;;;18.50;99.90;;;;;;5051136;28;20039;-54
2022/05/28 11:24:32;;;;;;;1.83;1.50;;;;;;;;;;5047397;28;20042;-53
2022/05/28 11:27:08;;;;;;;3.63;2.05;;;18.40;99.90;;;;;;5049843;28;20036;-53
2022/05/28 11:29:43;;;;;;;2.65;1.70;;;18.50;99.90;;;;;;5048817;28;20076;-55
2022/05/28 11:32:18;;;;;;;6.13;2.67;;;18.60;99.90;;;;;;5049656;28;20075;-53
2022/05/28 11:34:48;;;;;;;3.03;2.10;;;18.50;99.90;;;;;;5033153;28;20045;-53
2022/05/28 11:37:25;;;;;;;3.40;2.20;;;18.50;99.90;;;;;;5050293;28;20041;-53
2022/05/28 11:40:10;;;;;;;5.20;2.10;;;18.50;99.90;;;;;;5050056;28;20041;-54
2022/05/28 11:42:44;;;;;;;4.38;3.58;;;18.50;99.90;;;;;;5066416;28;20420;-53
2022/05/28 11:45:22;;;;;;;10.57;7.68;;;17.50;99.90;;;;;;5056959;28;20033;-54
2022/05/28 11:48:10;;;;;;;11.48;7.47;;;18.50;99.90;;;;;;5070005;28;20090;-54
2022/05/28 11:53:47;;;;;;;7.75;2.55;;;18.40;99.90;;;;;;5108109;28;20043;-55
2022/05/28 11:56:20;;;;;;;3.72;2.40;;;18.50;99.90;;;;;;5100915;28;20566;-53
2022/05/28 11:58:51;;;;;;;12.40;3.03;;;18.40;99.90;;;;;;5101063;28;20076;-54
2022/05/28 12:01:28;;;;;;;4.93;3.25;;;18.30;99.90;;;;;;5072552;28;20491;-54
2022/05/28 12:03:54;;;;;;;2.58;1.80;;;17.90;99.90;;;;;;5098875;28;20032;-53
2022/05/28 12:06:27;;;;;;;4.00;1.85;;;18.10;99.90;;;;;;5104578;28;20027;-54
2022/05/28 12:09:21;;;;;;;3.30;1.80;;;17.90;99.90;;;;;;5099852;28;20461;-54
2022/05/28 12:11:59;;;;;;;4.40;1.88;;;17.80;99.90;;;;;;5089403;28;20031;-55
2022/05/28 12:14:33;;;;;;;2.83;2.20;;;;;;;;;;5097674;28;20085;-56
2022/05/28 12:17:05;;;;;;;3.15;2.42;;;17.70;99.90;;;;;;5105183;28;20362;-53
2022/05/28 12:19:31;;;;;;;;;;;17.80;99.90;;;;;;5109519;27;20085;-53
2022/05/28 12:22:42;;;;;;;5.03;2.47;;;17.70;99.90;;;;;;5128041;27;19907;-53
2022/05/28 12:25:15;;;;;;;2.60;1.80;;;17.40;99.90;;;;;;5103766;27;20094;-53
2022/05/28 12:27:45;;;;;;;4.82;2.35;;;17.30;99.90;;;;;;5124707;27;20116;-53
2022/05/28 12:30:39;;;;;;;3.55;2.10;;;17.40;99.90;;;;;;5121343;27;20023;-53
2022/05/28 12:33:17;;;;;;;4.97;1.90;;;17.30;99.90;;;;;;5106210;27;20023;-53
2022/05/28 12:36:03;;;;;;;1.92;1.52;;;17.20;99.90;;;;;;5104725;27;20035;-53
2022/05/28 12:38:38;;;;;;;3.80;2.15;;;17.20;99.90;;;;;;5094133;27;20543;-53
2022/05/28 12:41:04;;;;;;;2.50;1.92;;;17.10;99.90;;;;;;5104323;27;20027;-54
2022/05/28 12:43:38;;;;;;;4.32;2.25;;;17.30;99.90;;;;;;5122243;27;20028;-53
2022/05/28 12:46:15;;;;;;;4.85;2.83;;;17.50;99.90;;;;;;5094155;28;20043;-53
2022/05/28 12:48:42;;;;;;;5.22;2.08;;;17.60;99.90;;;;;;5121949;27;20020;-54
2022/05/28 12:51:32;;;;;;;4.53;2.60;;;17.40;99.90;;;;;;5099261;27;20039;-53
2022/05/28 12:54:03;;;;;;;4.05;2.22;;;17.40;99.90;;;;;;5119086;27;20031;-54
2022/05/28 12:56:34;;;;;;;4.13;2.67;;;17.50;99.90;;;;;;5062697;28;20446;-53
2022/05/28 13:20:45;;;;;;;3.08;2.60;;;18.00;99.90;;;;;;5078838;27;20892;-58
2022/05/28 13:23:35;;;;;;;4.68;2.75;;;18.00;99.90;;;;;;5061879;28;20037;-58
2022/05/28 13:55:43;;;;;;;7.07;2.78;;;19.10;99.90;;;;;;5141944;27;20474;-53
2022/05/28 14:09:40;;;;;;;9.63;3.90;;;19.70;99.90;;;;;;5065717;28;20391;-55
2022/05/28 14:12:10;;;;;;;3.72;2.83;;;19.80;99.90;;;;;;5065883;28;20029;-54
2022/05/28 14:14:43;;;;;;;5.57;3.20;;;19.80;99.90;;;;;;5076695;28;20033;-52
2022/05/28 14:17:21;;;;;;;4.05;3.40;;;19.60;99.90;;;;;;5068249;28;20033;-55
2022/05/28 14:19:50;;;;;;;5.57;2.90;;;19.50;99.90;;;;;;5065235;28;20040;-52
2022/05/28 14:22:30;;;;;;;5.32;3.40;;;19.30;99.90;;;;;;5060571;28;20025;-54
2022/05/28 14:24:58;;;;;;;7.78;3.30;;;19.20;99.90;;;;;;5063876;28;20131;-53
2022/05/28 14:27:26;;;;;;;4.68;3.30;;;19.20;99.90;;;;;;5068124;28;20033;-54
2022/05/28 14:29:53;;;;;;;5.35;3.33;;;19.00;99.90;;;;;;5062670;28;20063;-55
2022/05/28 14:32:27;;;;;;;5.47;3.17;;;18.80;99.90;;;;;;5057333;28;20033;-51
2022/05/28 14:34:54;;;;;;;4.88;3.45;;;18.90;99.90;;;;;;5059604;28;20036;-52
2022/05/28 14:37:29;;;;;;;8.43;3.63;;;18.90;99.90;;;;;;5081200;28;20091;-55
2022/05/28 14:39:55;;;;;;;7.72;3.42;;;18.80;99.90;;;;;;5065702;28;20021;-53
2022/05/28 14:42:31;;;;;;;3.60;2.75;;;19.00;99.90;;;;;;5061320;28;20050;-55
2022/05/28 14:45:01;;;;;;;5.13;2.72;;;18.80;99.90;;;;;;5080469;28;20036;-52
2022/05/28 14:47:32;;;;;;;4.78;2.78;;;19.00;99.90;;;;;;5063211;28;20029;-55
2022/05/28 14:50:00;;;;;;;4.30;2.80;;;19.20;99.90;;;;;;5072384;28;20365;-57
2022/05/28 14:52:32;;;;;;;4.10;2.55;;;19.20;99.90;;;;;;5056960;28;20033;-56
2022/05/28 14:54:59;;;;;;;;;;;19.30;99.90;;;;;;5066569;28;20093;-56
2022/05/28 14:57:28;;;;;;;4.45;2.75;;;19.20;99.90;;;;;;5060856;28;19917;-58
2022/05/28 14:59:54;;;;;;;4.93;3.00;;;19.10;99.90;;;;;;5066138;28;20027;-55
2022/05/28 15:02:24;;;;;;;6.13;3.35;;;18.80;99.90;;;;;;5060860;28;20063;-61
2022/05/28 15:04:51;;;;;;;5.15;3.33;;;18.70;99.90;;;;;;5061585;28;20032;-62
2022/05/28 15:07:24;;;;;;;7.13;3.20;;;18.80;99.90;;;;;;5059709;28;20025;-53
2022/05/28 15:09:53;;;;;;;5.93;3.30;;;18.60;99.90;;;;;;5046491;28;20037;-58
2022/05/28 15:12:28;;;;;;;4.13;3.00;;;18.70;99.90;;;;;;5038824;28;20056;-59
2022/05/28 15:14:56;;;;;;;4.05;3.15;;;18.70;99.90;;;;;;5040265;28;20065;-59
2022/05/28 15:17:22;;;;;;;4.88;3.25;;;18.40;99.90;;;;;;5038878;28;20120;-57
2022/05/28 15:19:51;;;;;;;3.95;2.80;;;18.10;99.90;;;;;;5047193;28;20025;-56
2022/05/28 15:22:19;;;;;;;5.57;3.30;;;18.00;99.90;;;;;;5052277;28;20033;-58
2022/05/28 15:24:46;;;;;;;5.13;3.15;;;17.90;99.90;;;;;;5044734;28;20105;-52
2022/05/28 15:27:13;;;;;;;5.75;3.88;;;18.00;99.90;;;;;;5048548;28;20032;-54
2022/05/28 15:29:40;;;;;;;5.65;4.18;;;17.70;99.90;;;;;;5047577;28;20052;-57
2022/05/28 15:32:18;;;;;;;5.78;4.35;;;17.90;99.90;;;;;;5054355;28;20115;-58
2022/05/28 15:34:44;;;;;;;8.32;5.28;;;17.70;99.90;;;;;;5050998;28;20036;-52
2022/05/28 15:39:55;;;;;;;11.00;6.30;;;17.90;99.90;;;;;;5050986;28;20091;-55
2022/05/28 15:42:29;;;;;;;8.60;5.95;;;18.00;99.90;;;;;;5048505;28;20388;-53
2022/05/28 15:44:55;;;;;;;7.10;4.70;;;18.10;99.90;;;;;;5046389;28;20025;-56
2022/05/28 15:47:21;;;;;;;10.38;4.55;;;18.20;99.90;;;;;;5050232;28;20028;-57
2022/05/28 15:49:47;;;;;;;9.75;3.70;;;18.00;99.90;;;;;;5045028;28;20472;-57
2022/05/28 15:52:13;;;;;;;6.55;3.40;;;17.80;99.90;;;;;;5046052;28;20052;-58
2022/05/28 15:54:39;;;;;;;4.85;3.42;;;17.50;99.90;;;;;;5044431;28;20136;-51
2022/05/28 15:57:05;;;;;;;5.22;3.45;;;;;;;;;;5060120;28;20056;-53
2022/05/28 15:59:32;;;;;;;4.57;2.05;;;16.90;99.90;;;;;;5043603;28;20041;-56
2022/05/28 16:01:59;;;;;;;8.77;3.85;;;16.80;99.90;;;;;;5057975;28;20040;-54
2022/05/28 16:04:26;;;;;;;5.93;3.42;;;16.80;99.90;;;;;;5048781;28;20037;-56
2022/05/28 16:06:52;;;;;;;7.90;3.67;;;16.90;99.90;;;;;;5040371;28;20097;-54
2022/05/28 16:09:19;;;;;;;4.57;3.50;;;17.00;99.90;;;;;;5074149;28;20041;-57
2022/05/28 16:11:45;;;;;;;4.78;3.60;;;16.80;99.90;;;;;;5045375;28;20025;-58
2022/05/28 16:14:41;;;;;;;7.18;4.38;;;16.70;99.90;;;;;;5046286;28;20037;-59
2022/05/28 16:17:07;;;;;;;8.43;4.60;;;16.60;99.90;;;;;;5007143;28;20140;-55
2022/05/28 16:19:33;;;;;;;6.63;4.07;;;16.50;99.90;;;;;;5001619;28;20255;-57
2022/05/28 16:21:59;;;;;;;9.23;7.05;;;16.40;99.90;;;;;;5009480;28;20037;-57
2022/05/28 16:24:25;;;;;;;8.95;7.43;;;16.50;99.90;;;;;;5003854;28;20046;-55
2022/05/28 16:26:51;;;;;;;8.23;7.15;;;16.60;99.90;;;;;;4975651;28;20089;-54
2022/05/28 16:29:21;;;;;;;10.40;6.05;;;16.70;99.90;;;;;;5002751;28;20034;-59
2022/05/28 16:31:47;;;;;;;13.95;6.90;;;16.80;99.90;;;;;;5003610;28;20478;-55
2022/05/28 16:34:15;;;;;;;9.50;7.60;;;16.90;99.90;;;;;;4999246;28;20099;-55
2022/05/28 16:36:42;;;;;;;15.95;8.90;;;16.90;99.90;;;;;;4992240;28;20034;-52
2022/05/28 16:39:09;;;;;;;9.35;6.97;;;16.90;99.90;;;;;;5009011;28;20124;-52
2022/05/28 16:41:36;;;;;;;9.60;6.13;;;16.80;99.90;;;;;;5003595;28;20053;-56
2022/05/28 16:44:07;;;;;;;8.02;5.95;;;16.80;99.90;;;;;;4972902;28;20043;-52
2022/05/28 16:46:33;;;;;;;5.63;4.77;;;17.00;99.90;;;;;;4973524;28;20045;-53
2022/05/28 16:48:59;;;;;;;6.50;4.18;;;16.90;99.90;;;;;;5004213;28;20022;-56
2022/05/28 16:51:26;;;;;;;6.32;4.50;;;16.90;99.90;;;;;;5003898;28;20092;-54
2022/05/28 16:53:52;;;;;;;8.52;4.30;;;16.90;99.90;;;;;;5023170;28;20375;-51
2022/05/28 16:56:22;;;;;;;7.05;4.30;;;17.00;99.90;;;;;;5045510;28;20027;-53
2022/05/28 16:58:49;;;;;;;7.82;4.88;;;17.10;99.90;;;;;;5039401;28;20444;-53
2022/05/28 17:01:16;;;;;;;9.25;5.70;;;17.00;99.90;;;;;;5047026;28;20083;-52
2022/05/28 17:03:44;;;;;;;5.32;3.88;;;17.10;99.90;;;;;;5040759;28;20036;-54
2022/05/28 17:06:10;;;;;;;5.75;4.00;;;17.20;99.90;;;;;;5052007;28;20531;-54
2022/05/28 17:08:36;;;;;;;8.00;4.28;;;17.20;99.90;;;;;;5045425;28;20132;-53
2022/05/28 17:11:02;;;;;;;6.28;3.30;;;17.10;99.90;;;;;;5043319;28;20709;-52
2022/05/28 17:13:30;;;;;;;8.30;4.05;;;17.10;99.90;;;;;;5047040;28;20404;-54
2022/05/28 17:15:56;;;;;;;5.35;3.42;;;17.10;99.90;;;;;;5047580;28;20031;-55
2022/05/28 17:18:22;;;;;;;5.35;3.13;;;16.90;99.90;;;;;;5048463;28;20123;-53
2022/05/28 17:20:49;;;;;;;5.35;3.17;;;16.80;99.90;;;;;;5044712;28;20037;-54
2022/05/28 17:23:17;;;;;;;7.45;3.40;;;16.80;99.90;;;;;;5047094;28;20035;-53
2022/05/28 17:25:43;;;;;;;5.72;3.15;;;16.60;99.90;;;;;;5045387;28;20040;-54
2022/05/28 17:28:09;;;;;;;4.63;2.95;;;16.70;99.90;;;;;;5037588;28;20037;-52
2022/05/28 17:30:40;;;;;;;3.50;2.85;;;16.40;99.90;;;;;;5048530;28;20032;-53
2022/05/28 17:33:09;;;;;;;4.68;2.58;;;16.20;99.90;;;;;;5044987;28;20033;-54
2022/05/28 17:35:36;;;;;;;4.78;3.00;;;16.00;99.90;;;;;;5041107;28;20451;-54
2022/05/28 17:38:02;;;;;;;6.88;3.22;;;15.90;99.90;;;;;;5047633;28;20040;-54
2022/05/28 17:40:32;;;;;;;5.88;3.67;;;15.80;99.90;;;;;;5046614;28;20032;-53
2022/05/28 17:43:01;;;;;;;7.32;3.03;;;15.80;99.90;;;;;;5042348;28;20068;-55
2022/05/28 17:45:27;;;;;;;4.88;3.40;;;15.80;99.90;;;;;;5024084;28;20078;-55
2022/05/28 17:47:54;;;;;;;6.72;3.60;;;15.70;99.90;;;;;;5047813;28;20052;-55
2022/05/28 17:50:22;;;;;;;5.25;3.10;;;15.90;99.90;;;;;;5045576;28;20119;-52
2022/05/28 17:52:48;;;;;;;4.80;3.42;;;15.90;99.90;;;;;;5048725;28;20037;-54
2022/05/28 17:55:16;;;;;;;4.53;2.72;;;15.90;99.90;;;;;;5048235;28;20032;-55
2022/05/28 17:57:46;;;;;;;26.35;19.65;;;15.70;99.90;;;;;;5061361;28;20140;-54
2022/05/28 18:00:16;;;;;;;9.27;3.03;;;15.70;99.90;;;;;;5037865;28;20065;-53
2022/05/28 18:02:43;;;;;;;4.82;3.35;;;15.70;99.90;;;;;;5049029;28;20090;-52
2022/05/28 18:05:09;;;;;;;6.13;3.13;;;15.70;99.90;;;;;;5061488;28;20043;-53
2022/05/28 18:07:35;;;;;;;7.97;3.13;;;15.70;99.90;;;;;;5043784;28;20041;-53
2022/05/28 18:10:01;;;;;;;3.95;2.80;;;15.80;99.90;;;;;;5046777;28;20040;-55
2022/05/28 18:12:27;;;;;;;3.50;2.63;;;16.10;99.90;;;;;;5038488;28;20384;-54
2022/05/28 18:14:52;;;;;;;4.05;2.80;;;16.40;99.90;;;;;;5045063;28;20033;-55
2022/05/28 18:17:33;;;;;;;2.97;2.55;;;16.70;99.90;;;;;;5045815;28;20051;-52
2022/05/28 18:20:03;;;;;;;4.65;3.40;;;16.70;99.90;;;;;;5032474;28;20037;-53
2022/05/28 18:22:29;;;;;;;6.00;2.67;;;16.90;99.90;;;;;;5048307;28;20129;-55
2022/05/28 18:24:55;;;;;;;7.75;3.08;;;16.80;99.90;;;;;;5039953;28;20109;-52
2022/05/28 18:27:24;;;;;;;5.85;2.95;;;16.80;99.90;;;;;;5043088;28;20055;-52
2022/05/28 18:29:50;;;;;;;4.80;2.60;;;16.90;99.90;;;;;;5046154;28;20422;-52
2022/05/28 18:32:17;;;;;;;7.78;3.10;;;16.90;99.90;;;;;;5049376;28;20033;-54
2022/05/28 18:34:43;;;;;;;5.43;3.05;;;16.80;99.90;;;;;;5038477;28;20531;-52
2022/05/28 18:37:10;;;;;;;7.43;3.83;;;16.80;99.90;;;;;;5047067;28;20041;-54
2022/05/28 18:39:40;;;;;;;7.93;3.03;;;16.70;99.90;;;;;;5049584;28;20063;-53
2022/05/28 18:42:06;;;;;;;8.32;3.90;;;16.60;99.90;;;;;;5047139;28;20033;-52
2022/05/28 18:44:33;;;;;;;5.80;4.20;;;16.60;99.90;;;;;;5041793;28;20038;-54
2022/05/28 18:47:00;;;;;;;6.53;4.07;;;16.70;99.90;;;;;;5053144;28;20111;-55
2022/05/28 18:49:26;;;;;;;8.35;4.22;;;16.60;99.90;;;;;;5046797;28;20484;-54
2022/05/28 18:51:52;;;;;;;6.30;4.40;;;16.60;99.90;;;;;;5043366;28;20253;-54
2022/05/28 18:54:19;;;;;;;6.85;4.82;;;16.60;99.90;;;;;;5042424;28;20090;-53
2022/05/28 18:56:51;;;;;;;6.03;3.72;;;16.60;99.90;;;;;;5050815;28;20170;-53
2022/05/28 18:59:22;;;;;;;6.00;3.40;;;16.70;99.90;;;;;;5047351;28;20094;-53
2022/05/28 19:01:48;;;;;;;4.97;3.60;;;16.70;99.90;;;;;;5042286;28;20419;-53
2022/05/28 19:04:16;;;;;;;5.78;3.63;;;16.80;99.90;;;;;;5048752;28;20029;-52
2022/05/28 19:06:45;;;;;;;4.38;3.58;;;16.80;99.90;;;;;;5046847;28;20071;-55
2022/05/28 19:09:29;;;;;;;5.88;3.75;;;16.80;99.90;;;;;;5051158;28;20110;-55
2022/05/28 19:11:59;;;;;;;7.45;4.20;;;16.80;99.90;;;;;;5047158;28;20029;-55
2022/05/28 19:14:25;;;;;;;5.28;3.55;;;16.80;99.90;;;;;;5063722;28;20118;-52
2022/05/28 19:17:01;;;;;;;8.25;4.13;;;16.90;99.90;;;;;;5042199;28;20033;-55
2022/05/28 19:19:27;;;;;;;5.85;3.55;;;16.80;99.90;;;;;;5051237;28;20124;-54
2022/05/28 19:21:53;;;;;;;6.70;3.97;;;16.70;99.90;;;;;;5047633;28;20022;-53
2022/05/28 19:24:19;;;;;;;6.90;3.97;;;16.60;99.90;;;;;;5041000;28;20121;-53
2022/05/28 19:29:52;;;;;;;8.15;4.45;;;16.00;99.90;;;;;;5045483;28;20377;-55
2022/05/28 19:32:25;;;;;;;7.60;3.80;;;16.00;99.90;;;;;;5051204;28;20490;-53
2022/05/28 19:34:53;;;;;;;6.90;4.15;;;16.00;99.90;;;;;;5049101;28;20061;-54
2022/05/28 19:37:19;;;;;;;4.93;3.70;;;15.70;99.90;;;;;;5048768;28;20038;-53
2022/05/28 19:39:46;;;;;;;5.50;3.90;;;15.60;99.90;;;;;;5047312;28;20075;-53
2022/05/28 19:42:15;;;;;;;7.88;3.80;;;15.40;99.90;;;;;;5046841;28;20435;-53
2022/05/28 19:44:45;;;;;;;5.07;3.40;;;15.30;99.90;;;;;;5047741;28;20053;-55
2022/05/28 19:47:14;;;;;;;6.60;3.70;;;15.40;99.90;;;;;;5050681;28;20382;-52
2022/05/28 19:49:45;;;;;;;7.40;4.03;;;15.50;99.90;;;;;;5049456;28;20052;-55
2022/05/28 19:52:11;;;;;;;5.10;2.97;;;15.60;99.90;;;;;;5064316;28;20095;-53
2022/05/28 19:54:38;;;;;;;5.32;3.38;;;15.70;99.90;;;;;;5045117;28;20041;-51
2022/05/28 19:57:05;;;;;;;7.95;3.75;;;15.80;99.90;;;;;;5048301;28;20724;-53
2022/05/28 19:59:31;;;;;;;6.97;3.75;;;15.80;99.90;;;;;;5062940;28;20072;-52
2022/05/28 20:01:58;;;;;;;5.63;3.50;;;15.90;99.90;;;;;;5046930;28;20056;-52
2022/05/28 20:04:25;;;;;;;5.70;3.17;;;16.00;99.90;;;;;;5044676;28;20037;-53
2022/05/28 20:06:50;;;;;;;4.47;3.15;;;15.90;99.90;;;;;;5045696;28;20053;-53
2022/05/28 20:09:16;;;;;;;6.10;3.45;;;16.00;99.90;;;;;;5043835;28;20083;-53
2022/05/28 20:11:42;;;;;;;5.75;3.63;;;16.10;99.90;;;;;;5043348;28;20091;-53
2022/05/28 20:14:09;;;;;;;5.35;3.40;;;16.30;99.90;;;;;;5061606;28;20428;-53
2022/05/28 20:16:36;;;;;;;7.97;4.25;;;16.30;99.90;;;;;;5044612;28;20048;-52
2022/05/28 20:19:02;;;;;;;6.13;3.58;;;16.20;99.90;;;;;;5049154;28;20396;-53
2022/05/28 20:21:28;;;;;;;6.53;4.07;;;16.10;99.90;;;;;;5048890;28;20461;-52
2022/05/28 20:23:54;;;;;;;5.60;4.10;;;16.00;99.90;;;;;;5042776;28;20052;-56
2022/05/28 20:26:20;;;;;;;5.03;3.33;;;15.90;99.90;;;;;;5044007;28;20028;-54
2022/05/28 20:28:46;;;;;;;7.43;3.05;;;15.90;99.90;;;;;;5044429;28;20486;-54
2022/05/28 20:31:14;;;;;;;7.30;3.60;;;15.90;99.90;;;;;;5055505;28;20123;-52
2022/05/28 20:33:42;;;;;;;4.82;3.38;;;15.80;99.90;;;;;;5048228;28;20043;-51
2022/05/28 20:36:11;;;;;;;6.68;3.55;;;15.80;99.90;;;;;;5043652;28;20059;-52
2022/05/28 20:38:38;;;;;;;8.35;4.05;;;15.90;99.90;;;;;;5046331;28;20095;-54
2022/05/28 20:41:04;;;;;;;7.75;4.30;;;16.10;99.90;;;;;;5055366;28;20055;-55
2022/05/28 20:43:31;;;;;;;7.30;3.35;;;16.30;99.90;;;;;;5036688;28;20061;-55
2022/05/28 20:46:05;;;;;;;5.85;3.90;;;16.30;99.90;;;;;;5051536;28;20056;-56
2022/05/28 20:48:49;;;;;;;5.75;4.20;;;15.90;99.90;;;;;;5044814;28;20036;-52
2022/05/28 20:51:17;;;;;;;5.47;4.15;;;15.80;99.90;;;;;;5052140;28;20396;-55
2022/05/28 20:53:44;;;;;;;6.43;3.97;;;15.90;99.90;;;;;;5043882;28;20510;-52
2022/05/28 20:56:12;;;;;;;6.20;3.97;;;15.90;99.90;;;;;;5065522;28;20029;-53
2022/05/28 20:58:40;;;;;;;5.80;3.72;;;15.70;99.90;;;;;;5042566;28;20029;-54
2022/05/28 21:01:12;;;;;;;5.93;4.30;;;15.50;99.90;;;;;;5044792;28;20476;-54
2022/05/28 21:03:44;;;;;;;5.65;4.28;;;15.30;99.90;;;;;;5048004;28;20469;-54
2022/05/28 21:06:16;;;;;;;4.65;4.15;;;15.30;99.90;;;;;;5049679;28;20040;-52
2022/05/28 21:08:42;;;;;;;;;;;15.30;99.90;;;;;;5044649;28;20043;-55
2022/05/28 21:11:10;;;;;;;6.32;4.38;;;15.40;99.90;;;;;;5043191;28;19915;-54
2022/05/28 21:13:37;;;;;;;7.18;4.32;;;15.60;99.90;;;;;;5040380;28;20025;-53
2022/05/28 21:16:08;;;;;;;7.20;4.72;;;15.60;99.90;;;;;;5039138;28;20429;-55
2022/05/28 21:18:37;;;;;;;6.40;4.90;;;15.60;99.90;;;;;;5045277;28;20039;-54
2022/05/28 21:21:08;;;;;;;6.88;5.13;;;15.60;99.90;;;;;;5045048;28;20044;-56
2022/05/28 21:23:35;;;;;;;6.45;4.78;;;15.70;99.90;;;;;;5045611;28;20112;-54
2022/05/28 21:31:29;;;;;;;4.82;3.55;;;15.30;99.90;;;;;;5038817;28;20052;-52
2022/05/28 21:33:55;;;;;;;7.25;3.70;;;15.00;99.90;;;;;;5045395;28;20021;-52
2022/05/28 21:36:20;;;;;;;6.18;4.47;;;15.00;99.90;;;;;;5039766;28;20555;-55
2022/05/28 21:38:46;;;;;;;7.85;3.83;;;15.20;99.90;;;;;;5042003;28;20041;-52
2022/05/28 21:41:12;;;;;;;6.63;4.22;;;15.40;99.90;;;;;;5043424;28;20108;-56
2022/05/28 21:43:38;;;;;;;5.30;4.18;;;15.40;99.90;;;;;;5059877;28;20129;-51
2022/05/28 21:46:03;;;;;;;4.88;4.07;;;15.30;99.90;;;;;;5037747;28;20076;-53
2022/05/28 21:48:31;;;;;;;5.10;4.03;;;15.40;99.90;;;;;;5039378;28;20087;-55
2022/05/28 21:50:57;;;;;;;5.15;3.72;;;15.50;99.90;;;;;;5049877;28;20037;-55
2022/05/28 21:53:25;;;;;;;7.38;3.65;;;15.70;99.90;;;;;;5038991;28;20489;-52
2022/05/28 21:55:52;;;;;;;6.40;2.95;;;15.80;99.90;;;;;;5054316;28;20045;-52
2022/05/28 21:58:18;;;;;;;4.85;3.40;;;15.80;99.90;;;;;;5051125;28;20040;-52
2022/05/28 22:00:47;;;;;;;6.93;3.40;;;16.00;99.90;;;;;;5044691;28;20104;-52
2022/05/28 22:03:18;;;;;;;4.78;3.50;;;16.10;99.90;;;;;;5037857;28;20040;-52
2022/05/28 22:05:45;;;;;;;4.00;3.27;;;16.10;99.90;;;;;;5040870;28;20074;-54
2022/05/28 22:08:11;;;;;;;5.07;3.55;;;16.10;99.90;;;;;;5050026;28;20102;-55
2022/05/28 22:10:37;;;;;;;6.68;3.97;;;16.10;99.90;;;;;;5045711;28;20041;-55
2022/05/28 22:13:03;;;;;;;5.70;3.70;;;16.10;99.90;;;;;;5046765;28;20159;-52
2022/05/28 22:15:29;;;;;;;8.00;4.50;;;16.00;99.90;;;;;;5044020;28;20170;-55
2022/05/28 22:17:56;;;;;;;6.32;3.75;;;16.00;99.90;;;;;;5042368;28;20051;-52
2022/05/28 22:20:23;;;;;;;5.43;3.78;;;16.00;99.90;;;;;;5050163;28;20388;-55
2022/05/28 22:22:53;;;;;;;4.50;3.50;;;16.20;99.90;;;;;;5064702;28;20357;-55
2022/05/28 22:25:19;;;;;;;5.55;3.40;;;16.30;99.90;;;;;;5048199;28;20025;-56
2022/05/28 22:27:45;;;;;;;4.07;3.15;;;16.40;99.90;;;;;;5053246;28;20095;-54
2022/05/28 22:30:11;;;;;;;3.50;3.08;;;16.40;99.90;;;;;;5049133;28;20025;-52
2022/05/28 22:32:37;;;;;;;4.78;3.13;;;16.40;99.90;;;;;;5010154;28;20397;-56
2022/05/28 22:35:05;;;;;;;8.52;3.25;;;16.50;99.90;;;;;;5053514;28;20083;-53
2022/05/28 22:37:31;;;;;;;4.40;3.00;;;16.60;99.90;;;;;;5049042;28;20039;-54
2022/05/28 22:39:56;;;;;;;6.10;3.17;;;16.60;99.90;;;;;;5045979;28;20040;-54
2022/05/28 22:42:23;;;;;;;4.47;2.78;;;16.60;99.90;;;;;;5044661;28;20036;-53
2022/05/28 22:47:56;;;;;;;4.80;3.15;;;16.70;99.90;;;;;;5051189;28;20041;-54
2022/05/28 22:50:40;;;;;;;5.05;3.17;;;16.70;99.90;;;;;;5047328;28;20102;-55
2022/05/28 22:53:11;;;;;;;4.95;3.17;;;16.80;99.90;;;;;;5041174;28;20032;-54
2022/05/28 22:55:38;;;;;;;4.17;2.90;;;16.80;99.90;;;;;;5049666;28;20032;-54